AFL797 LTAI-UWWW
Flight info
| Callsign | AFL797 |
|---|---|
| Flight time | 3h 15m |
| Altitude | 34000 |
| Route | HISAR1K/18L HISAR UW77 BAG/N0455F350 UT61 SIN UW96 ODIRA G487 KEPOL G901 INDIM/K0841F360 G901 OTKEN/K0839F350 G901 RODUN R807 UROBO P135 TUNIG |
| Aircraft | A320/M-SDE2E3FGHIJ1RWY/LB1U1 |
Departure
| Time | 2026-05-06 16:29 |
|---|---|
| Airport | Antalya International Airport (LTAI) |
Arrival
| Time | 2026-05-06 19:45 |
|---|---|
| Airport | Kurumoch International Airport (UWWW) |
| Time | Latitude | Longitude | Altitude | Speed | Heading |
|---|---|---|---|---|---|
| 2026-05-06 16:01 | 36.89703 | 30.80102 | 192 ft | 0 kts | 3° |
| 2026-05-06 16:21 | 36.89682 | 30.80099 | 202 ft | 4 kts | 12° |
| 2026-05-06 16:21 | 36.89656 | 30.80089 | 195 ft | 4 kts | 28° |
| 2026-05-06 16:21 | 36.89634 | 30.80070 | 204 ft | 4 kts | 47° |
| 2026-05-06 16:22 | 36.89620 | 30.80043 | 196 ft | 4 kts | 74° |
| 2026-05-06 16:22 | 36.89617 | 30.80018 | 204 ft | 0 kts | 99° |
| 2026-05-06 16:24 | 36.89615 | 30.80036 | 196 ft | 5 kts | 99° |
| 2026-05-06 16:24 | 36.89608 | 30.80103 | 192 ft | 11 kts | 97° |
| 2026-05-06 16:24 | 36.89596 | 30.80220 | 195 ft | 16 kts | 95° |
| 2026-05-06 16:24 | 36.89583 | 30.80380 | 192 ft | 21 kts | 96° |
| 2026-05-06 16:25 | 36.89568 | 30.80547 | 192 ft | 17 kts | 96° |
| 2026-05-06 16:25 | 36.89563 | 30.80667 | 191 ft | 10 kts | 72° |
| 2026-05-06 16:25 | 36.89618 | 30.80700 | 191 ft | 8 kts | 6° |
| 2026-05-06 16:25 | 36.89691 | 30.80709 | 192 ft | 13 kts | 6° |
| 2026-05-06 16:26 | 36.89796 | 30.80723 | 202 ft | 19 kts | 6° |
| 2026-05-06 16:26 | 36.89947 | 30.80744 | 195 ft | 25 kts | 6° |
| 2026-05-06 16:26 | 36.90144 | 30.80771 | 196 ft | 31 kts | 6° |
| 2026-05-06 16:26 | 36.90346 | 30.80799 | 191 ft | 28 kts | 6° |
| 2026-05-06 16:27 | 36.90543 | 30.80825 | 200 ft | 29 kts | 6° |
| 2026-05-06 16:27 | 36.90741 | 30.80853 | 194 ft | 28 kts | 6° |
| 2026-05-06 16:27 | 36.90907 | 30.80876 | 194 ft | 18 kts | 6° |
| 2026-05-06 16:27 | 36.90983 | 30.80907 | 206 ft | 9 kts | 57° |
| 2026-05-06 16:28 | 36.90984 | 30.80980 | 190 ft | 9 kts | 97° |
| 2026-05-06 16:28 | 36.90975 | 30.81081 | 190 ft | 12 kts | 96° |
| 2026-05-06 16:28 | 36.90960 | 30.81117 | 196 ft | 2 kts | 162° |
| 2026-05-06 16:28 | 36.90941 | 30.81115 | 194 ft | 6 kts | 186° |
| 2026-05-06 16:29 | 36.90796 | 30.81095 | 193 ft | 50 kts | 186° |
| 2026-05-06 16:29 | 36.90225 | 30.81019 | 196 ft | 112 kts | 186° |
| 2026-05-06 16:29 | 36.89275 | 30.80893 | 202 ft | 159 kts | 185° |
| 2026-05-06 16:29 | 36.88182 | 30.80788 | 790 ft | 159 kts | 177° |
| 2026-05-06 16:30 | 36.87080 | 30.80965 | 1470 ft | 160 kts | 172° |
| 2026-05-06 16:30 | 36.86332 | 30.81097 | 1912 ft | 162 kts | 173° |
| 2026-05-06 16:30 | 36.84845 | 30.81360 | 2675 ft | 164 kts | 172° |
| 2026-05-06 16:30 | 36.83704 | 30.81570 | 3205 ft | 167 kts | 172° |
| 2026-05-06 16:31 | 36.82535 | 30.81784 | 3606 ft | 178 kts | 171° |
| 2026-05-06 16:31 | 36.81238 | 30.82023 | 3825 ft | 199 kts | 171° |
| 2026-05-06 16:31 | 36.79807 | 30.82323 | 4069 ft | 218 kts | 162° |
| 2026-05-06 16:31 | 36.78363 | 30.83175 | 4278 ft | 243 kts | 151° |
| 2026-05-06 16:32 | 36.76782 | 30.84173 | 4631 ft | 265 kts | 152° |
| 2026-05-06 16:32 | 36.75151 | 30.85326 | 5257 ft | 273 kts | 139° |
| 2026-05-06 16:32 | 36.73990 | 30.87196 | 5952 ft | 276 kts | 110° |
| 2026-05-06 16:32 | 36.73588 | 30.89529 | 6691 ft | 277 kts | 93° |
| 2026-05-06 16:33 | 36.73398 | 30.91939 | 7426 ft | 282 kts | 92° |
| 2026-05-06 16:33 | 36.73213 | 30.94386 | 8162 ft | 286 kts | 92° |
| 2026-05-06 16:33 | 36.73023 | 30.96871 | 8923 ft | 290 kts | 92° |
| 2026-05-06 16:34 | 36.72627 | 31.01896 | 10292 ft | 302 kts | 92° |
| 2026-05-06 16:34 | 36.72462 | 31.04606 | 10473 ft | 324 kts | 86° |
| 2026-05-06 16:34 | 36.72824 | 31.07443 | 10647 ft | 340 kts | 68° |
| 2026-05-06 16:34 | 36.73905 | 31.10082 | 11113 ft | 344 kts | 51° |
| 2026-05-06 16:35 | 36.75574 | 31.12207 | 11708 ft | 344 kts | 33° |
| 2026-05-06 16:35 | 36.77676 | 31.13607 | 12336 ft | 344 kts | 16° |
| 2026-05-06 16:35 | 36.79997 | 31.14357 | 12980 ft | 346 kts | 11° |
| 2026-05-06 16:35 | 36.82353 | 31.15050 | 13641 ft | 349 kts | 11° |
| 2026-05-06 16:36 | 36.84729 | 31.15749 | 14251 ft | 352 kts | 11° |
| 2026-05-06 16:36 | 36.87126 | 31.16457 | 14829 ft | 355 kts | 11° |
| 2026-05-06 16:36 | 36.89541 | 31.17174 | 15412 ft | 358 kts | 10° |
| 2026-05-06 16:36 | 36.91977 | 31.17897 | 15982 ft | 361 kts | 10° |
| 2026-05-06 16:37 | 36.94427 | 31.18623 | 16551 ft | 364 kts | 10° |
| 2026-05-06 16:37 | 36.96901 | 31.19357 | 17118 ft | 367 kts | 10° |
| 2026-05-06 16:37 | 36.99358 | 31.20089 | 17661 ft | 369 kts | 10° |
| 2026-05-06 16:37 | 37.01868 | 31.20842 | 18227 ft | 372 kts | 10° |
| 2026-05-06 16:38 | 37.04389 | 31.21604 | 18700 ft | 374 kts | 10° |
| 2026-05-06 16:38 | 37.06928 | 31.22370 | 19150 ft | 377 kts | 9° |
| 2026-05-06 16:38 | 37.09488 | 31.23139 | 19590 ft | 379 kts | 9° |
| 2026-05-06 16:38 | 37.12062 | 31.23910 | 20051 ft | 382 kts | 9° |
| 2026-05-06 16:39 | 37.14656 | 31.24686 | 20491 ft | 385 kts | 10° |
| 2026-05-06 16:39 | 37.17280 | 31.25471 | 20884 ft | 390 kts | 10° |
| 2026-05-06 16:39 | 37.19930 | 31.26264 | 21286 ft | 393 kts | 10° |
| 2026-05-06 16:39 | 37.22605 | 31.27067 | 21713 ft | 396 kts | 10° |
| 2026-05-06 16:40 | 37.25292 | 31.27874 | 22158 ft | 399 kts | 10° |
| 2026-05-06 16:40 | 37.28000 | 31.28683 | 22606 ft | 401 kts | 10° |
| 2026-05-06 16:40 | 37.30688 | 31.29483 | 23038 ft | 403 kts | 10° |
| 2026-05-06 16:40 | 37.33425 | 31.30300 | 23434 ft | 406 kts | 10° |
| 2026-05-06 16:41 | 37.36181 | 31.31132 | 23807 ft | 408 kts | 10° |
| 2026-05-06 16:41 | 37.38949 | 31.31974 | 24160 ft | 410 kts | 10° |
| 2026-05-06 16:41 | 37.41731 | 31.32822 | 24504 ft | 412 kts | 10° |
| 2026-05-06 16:41 | 37.44520 | 31.33669 | 24851 ft | 413 kts | 10° |
| 2026-05-06 16:42 | 37.47316 | 31.34512 | 25200 ft | 414 kts | 10° |
| 2026-05-06 16:42 | 37.50129 | 31.35358 | 25535 ft | 416 kts | 10° |
| 2026-05-06 16:42 | 37.52945 | 31.36207 | 25856 ft | 417 kts | 9° |
| 2026-05-06 16:42 | 37.55768 | 31.37058 | 26172 ft | 419 kts | 10° |
| 2026-05-06 16:43 | 37.58608 | 31.37917 | 26501 ft | 420 kts | 10° |
| 2026-05-06 16:43 | 37.61460 | 31.38783 | 26832 ft | 422 kts | 10° |
| 2026-05-06 16:43 | 37.64316 | 31.39657 | 27165 ft | 423 kts | 10° |
| 2026-05-06 16:43 | 37.67143 | 31.40523 | 27489 ft | 425 kts | 9° |
| 2026-05-06 16:44 | 37.70020 | 31.41403 | 27810 ft | 426 kts | 9° |
| 2026-05-06 16:44 | 37.72906 | 31.42286 | 28117 ft | 427 kts | 9° |
| 2026-05-06 16:44 | 37.75801 | 31.43167 | 28390 ft | 429 kts | 9° |
| 2026-05-06 16:44 | 37.78712 | 31.44048 | 28672 ft | 431 kts | 9° |
| 2026-05-06 16:45 | 37.81632 | 31.44934 | 28944 ft | 432 kts | 9° |
| 2026-05-06 16:45 | 37.84562 | 31.45825 | 29214 ft | 434 kts | 9° |
| 2026-05-06 16:45 | 37.87495 | 31.46721 | 29491 ft | 435 kts | 9° |
| 2026-05-06 16:45 | 37.90440 | 31.47618 | 29761 ft | 436 kts | 9° |
| 2026-05-06 16:46 | 37.93391 | 31.48518 | 30056 ft | 437 kts | 9° |
| 2026-05-06 16:46 | 37.96347 | 31.49428 | 30386 ft | 436 kts | 9° |
| 2026-05-06 16:46 | 37.99288 | 31.50336 | 30700 ft | 435 kts | 9° |
| 2026-05-06 16:46 | 38.02227 | 31.51243 | 30997 ft | 434 kts | 9° |
| 2026-05-06 16:47 | 38.05159 | 31.52147 | 31285 ft | 434 kts | 9° |
| 2026-05-06 16:47 | 38.08065 | 31.53037 | 31495 ft | 436 kts | 9° |
| 2026-05-06 16:47 | 38.11006 | 31.54020 | 31720 ft | 439 kts | 15° |
| 2026-05-06 16:47 | 38.13842 | 31.55515 | 31944 ft | 444 kts | 22° |
| 2026-05-06 16:48 | 38.16611 | 31.57267 | 32221 ft | 444 kts | 22° |
| 2026-05-06 16:48 | 38.19380 | 31.59018 | 32519 ft | 444 kts | 22° |
| 2026-05-06 16:48 | 38.22139 | 31.60761 | 32821 ft | 443 kts | 22° |
| 2026-05-06 16:48 | 38.24896 | 31.62499 | 33121 ft | 442 kts | 22° |
| 2026-05-06 16:49 | 38.27647 | 31.64230 | 33430 ft | 441 kts | 22° |
| 2026-05-06 16:49 | 38.30395 | 31.65960 | 33737 ft | 440 kts | 22° |
| 2026-05-06 16:49 | 38.33133 | 31.67690 | 34029 ft | 439 kts | 22° |
| 2026-05-06 16:50 | 38.38598 | 31.71157 | 34131 ft | 438 kts | 22° |
| 2026-05-06 16:50 | 38.44004 | 31.74589 | 34137 ft | 437 kts | 22° |
| 2026-05-06 16:51 | 38.49433 | 31.78024 | 34125 ft | 435 kts | 22° |
| 2026-05-06 16:51 | 38.54858 | 31.81467 | 34122 ft | 437 kts | 22° |
| 2026-05-06 16:52 | 38.60307 | 31.84929 | 34117 ft | 438 kts | 22° |
| 2026-05-06 16:52 | 38.65752 | 31.88415 | 34122 ft | 438 kts | 22° |
| 2026-05-06 16:53 | 38.71196 | 31.91905 | 34114 ft | 437 kts | 22° |
| 2026-05-06 16:53 | 38.76638 | 31.95384 | 34108 ft | 437 kts | 22° |
| 2026-05-06 16:54 | 38.82042 | 31.98849 | 34114 ft | 437 kts | 22° |
| 2026-05-06 16:54 | 38.87477 | 32.02344 | 34113 ft | 437 kts | 22° |
| 2026-05-06 16:55 | 38.92913 | 32.05838 | 34104 ft | 437 kts | 22° |
| 2026-05-06 16:55 | 38.98341 | 32.09338 | 34117 ft | 437 kts | 22° |
| 2026-05-06 16:56 | 39.03780 | 32.12850 | 34097 ft | 438 kts | 22° |
| 2026-05-06 16:56 | 39.09185 | 32.16339 | 34085 ft | 438 kts | 22° |
| 2026-05-06 16:57 | 39.14629 | 32.19867 | 34102 ft | 438 kts | 22° |
| 2026-05-06 16:57 | 39.20074 | 32.23406 | 34101 ft | 438 kts | 22° |
| 2026-05-06 16:58 | 39.25515 | 32.26950 | 34096 ft | 438 kts | 22° |
| 2026-05-06 16:58 | 39.30953 | 32.30489 | 34105 ft | 438 kts | 22° |
| 2026-05-06 16:59 | 39.36355 | 32.34008 | 34103 ft | 438 kts | 23° |
| 2026-05-06 16:59 | 39.41788 | 32.37567 | 34108 ft | 438 kts | 23° |
| 2026-05-06 17:00 | 39.47211 | 32.41137 | 34127 ft | 437 kts | 22° |
| 2026-05-06 17:00 | 39.52621 | 32.44717 | 34121 ft | 437 kts | 22° |
| 2026-05-06 17:01 | 39.58028 | 32.48299 | 34124 ft | 436 kts | 22° |
| 2026-05-06 17:01 | 39.63429 | 32.51874 | 34122 ft | 436 kts | 22° |
| 2026-05-06 17:02 | 39.68787 | 32.55428 | 34120 ft | 435 kts | 22° |
| 2026-05-06 17:02 | 39.74171 | 32.59005 | 34128 ft | 435 kts | 22° |
| 2026-05-06 17:03 | 39.79546 | 32.62586 | 34281 ft | 433 kts | 22° |
| 2026-05-06 17:03 | 39.82225 | 32.64373 | 34513 ft | 433 kts | 22° |
| 2026-05-06 17:03 | 39.84904 | 32.66166 | 34748 ft | 433 kts | 22° |
| 2026-05-06 17:03 | 39.87581 | 32.67960 | 34973 ft | 433 kts | 22° |
| 2026-05-06 17:04 | 39.90267 | 32.69756 | 35081 ft | 435 kts | 22° |
| 2026-05-06 17:04 | 39.95653 | 32.73359 | 35106 ft | 435 kts | 22° |
| 2026-05-06 17:05 | 40.01038 | 32.76981 | 35105 ft | 435 kts | 22° |
| 2026-05-06 17:05 | 40.06360 | 32.80648 | 35096 ft | 438 kts | 28° |
| 2026-05-06 17:06 | 40.11161 | 32.85630 | 35110 ft | 442 kts | 36° |
| 2026-05-06 17:06 | 40.15833 | 32.90855 | 35108 ft | 442 kts | 36° |
| 2026-05-06 17:07 | 40.20513 | 32.96082 | 35126 ft | 442 kts | 36° |
| 2026-05-06 17:07 | 40.25178 | 33.01327 | 35121 ft | 442 kts | 36° |
| 2026-05-06 17:08 | 40.29840 | 33.06578 | 35115 ft | 442 kts | 36° |
| 2026-05-06 17:08 | 40.34512 | 33.11823 | 35133 ft | 442 kts | 36° |
| 2026-05-06 17:09 | 40.39177 | 33.17072 | 35123 ft | 441 kts | 36° |
| 2026-05-06 17:09 | 40.43789 | 33.22300 | 35116 ft | 441 kts | 36° |
| 2026-05-06 17:10 | 40.48427 | 33.27562 | 35131 ft | 440 kts | 36° |
| 2026-05-06 17:10 | 40.53061 | 33.32824 | 35126 ft | 440 kts | 36° |
| 2026-05-06 17:11 | 40.57694 | 33.38083 | 35120 ft | 440 kts | 36° |
| 2026-05-06 17:11 | 40.62322 | 33.43356 | 35132 ft | 440 kts | 37° |
| 2026-05-06 17:12 | 40.66915 | 33.48608 | 35126 ft | 440 kts | 37° |
| 2026-05-06 17:12 | 40.71536 | 33.53894 | 35123 ft | 440 kts | 37° |
| 2026-05-06 17:13 | 40.76155 | 33.59186 | 35131 ft | 440 kts | 37° |
| 2026-05-06 17:13 | 40.80777 | 33.64486 | 35115 ft | 440 kts | 37° |
| 2026-05-06 17:14 | 40.85399 | 33.69800 | 35111 ft | 441 kts | 37° |
| 2026-05-06 17:14 | 40.89238 | 33.74230 | 35111 ft | 441 kts | 37° |
| 2026-05-06 17:15 | 40.94606 | 33.80424 | 35112 ft | 441 kts | 38° |
| 2026-05-06 17:15 | 40.99227 | 33.85757 | 35107 ft | 441 kts | 38° |
| 2026-05-06 17:16 | 41.03850 | 33.91119 | 35100 ft | 442 kts | 38° |
| 2026-05-06 17:16 | 41.07689 | 33.95586 | 35111 ft | 442 kts | 38° |
| 2026-05-06 17:17 | 41.13071 | 34.01846 | 35109 ft | 442 kts | 38° |
| 2026-05-06 17:17 | 41.16937 | 34.06351 | 35114 ft | 442 kts | 38° |
| 2026-05-06 17:18 | 41.21559 | 34.11746 | 35119 ft | 443 kts | 38° |
| 2026-05-06 17:18 | 41.26174 | 34.17142 | 35114 ft | 442 kts | 38° |
| 2026-05-06 17:19 | 41.30754 | 34.22516 | 35116 ft | 442 kts | 38° |
| 2026-05-06 17:19 | 41.35108 | 34.28283 | 35118 ft | 446 kts | 51° |
| 2026-05-06 17:20 | 41.38687 | 34.35024 | 35111 ft | 446 kts | 52° |
| 2026-05-06 17:20 | 41.42233 | 34.41808 | 35106 ft | 446 kts | 52° |
| 2026-05-06 17:21 | 41.45776 | 34.48606 | 35120 ft | 447 kts | 52° |
| 2026-05-06 17:21 | 41.49322 | 34.55412 | 35122 ft | 447 kts | 52° |
| 2026-05-06 17:22 | 41.52871 | 34.62208 | 35124 ft | 446 kts | 52° |
| 2026-05-06 17:22 | 41.56447 | 34.68918 | 35131 ft | 446 kts | 51° |
| 2026-05-06 17:23 | 41.60057 | 34.75660 | 35141 ft | 446 kts | 52° |
| 2026-05-06 17:23 | 41.63655 | 34.82420 | 35145 ft | 446 kts | 52° |
| 2026-05-06 17:24 | 41.67241 | 34.89198 | 35152 ft | 446 kts | 52° |
| 2026-05-06 17:24 | 41.70816 | 34.95990 | 35163 ft | 446 kts | 52° |
| 2026-05-06 17:25 | 41.74387 | 35.02780 | 35157 ft | 446 kts | 52° |
| 2026-05-06 17:25 | 41.77967 | 35.09570 | 35160 ft | 446 kts | 52° |
| 2026-05-06 17:26 | 41.81532 | 35.16371 | 35160 ft | 446 kts | 52° |
| 2026-05-06 17:26 | 41.85069 | 35.23136 | 35167 ft | 446 kts | 53° |
| 2026-05-06 17:27 | 41.88627 | 35.29952 | 35162 ft | 446 kts | 53° |
| 2026-05-06 17:27 | 41.92181 | 35.36777 | 35165 ft | 446 kts | 53° |
| 2026-05-06 17:28 | 41.95731 | 35.43609 | 35160 ft | 446 kts | 53° |
| 2026-05-06 17:28 | 41.99274 | 35.50452 | 35157 ft | 446 kts | 53° |
| 2026-05-06 17:29 | 42.02816 | 35.57300 | 35160 ft | 446 kts | 53° |
| 2026-05-06 17:29 | 42.06337 | 35.64096 | 35158 ft | 446 kts | 53° |
| 2026-05-06 17:30 | 42.09881 | 35.70943 | 35161 ft | 446 kts | 53° |
| 2026-05-06 17:30 | 42.13416 | 35.77792 | 35157 ft | 445 kts | 53° |
| 2026-05-06 17:31 | 42.16951 | 35.84649 | 35160 ft | 445 kts | 54° |
| 2026-05-06 17:31 | 42.20478 | 35.91519 | 35167 ft | 446 kts | 54° |
| 2026-05-06 17:32 | 42.24000 | 35.98411 | 35157 ft | 447 kts | 54° |
| 2026-05-06 17:32 | 42.27515 | 36.05272 | 35155 ft | 447 kts | 54° |
| 2026-05-06 17:33 | 42.31046 | 36.12196 | 35154 ft | 448 kts | 54° |
| 2026-05-06 17:33 | 42.34569 | 36.19129 | 35153 ft | 448 kts | 55° |
| 2026-05-06 17:34 | 42.38089 | 36.26075 | 35151 ft | 448 kts | 55° |
| 2026-05-06 17:34 | 42.41613 | 36.33023 | 35152 ft | 448 kts | 55° |
| 2026-05-06 17:35 | 42.45135 | 36.39982 | 35156 ft | 448 kts | 56° |
| 2026-05-06 17:35 | 42.48652 | 36.46961 | 35162 ft | 448 kts | 55° |
| 2026-05-06 17:36 | 42.53915 | 36.57433 | 35166 ft | 448 kts | 55° |
| 2026-05-06 17:36 | 42.57401 | 36.64370 | 35167 ft | 448 kts | 55° |
| 2026-05-06 17:37 | 42.60900 | 36.71367 | 35164 ft | 448 kts | 56° |
| 2026-05-06 17:37 | 42.62645 | 36.74875 | 35298 ft | 449 kts | 56° |
| 2026-05-06 17:37 | 42.64391 | 36.78387 | 35535 ft | 448 kts | 56° |
| 2026-05-06 17:38 | 42.66132 | 36.81895 | 35742 ft | 448 kts | 56° |
| 2026-05-06 17:38 | 42.67878 | 36.85413 | 35940 ft | 448 kts | 56° |
| 2026-05-06 17:38 | 42.69623 | 36.88924 | 36112 ft | 449 kts | 56° |
| 2026-05-06 17:38 | 42.71210 | 36.92578 | 36156 ft | 449 kts | 64° |
| 2026-05-06 17:39 | 42.73642 | 37.00390 | 36160 ft | 449 kts | 67° |
| 2026-05-06 17:39 | 42.76037 | 37.08232 | 36162 ft | 449 kts | 67° |
| 2026-05-06 17:40 | 42.78422 | 37.16024 | 36160 ft | 449 kts | 67° |
| 2026-05-06 17:40 | 42.80827 | 37.23870 | 36158 ft | 449 kts | 67° |
| 2026-05-06 17:41 | 42.83224 | 37.31722 | 36162 ft | 449 kts | 68° |
| 2026-05-06 17:41 | 42.85608 | 37.39584 | 36163 ft | 449 kts | 68° |
| 2026-05-06 17:42 | 42.87981 | 37.47457 | 36160 ft | 449 kts | 68° |
| 2026-05-06 17:42 | 42.90356 | 37.55332 | 36159 ft | 449 kts | 68° |
| 2026-05-06 17:43 | 42.92710 | 37.63160 | 36166 ft | 449 kts | 68° |
| 2026-05-06 17:43 | 42.95071 | 37.71042 | 36167 ft | 448 kts | 68° |
| 2026-05-06 17:44 | 42.97422 | 37.78921 | 36165 ft | 448 kts | 68° |
| 2026-05-06 17:44 | 42.99767 | 37.86810 | 36163 ft | 448 kts | 68° |
| 2026-05-06 17:45 | 43.02226 | 37.94618 | 36168 ft | 447 kts | 60° |
| 2026-05-06 17:45 | 43.06116 | 38.01205 | 36168 ft | 448 kts | 41° |
| 2026-05-06 17:46 | 43.11197 | 38.06140 | 36161 ft | 448 kts | 35° |
| 2026-05-06 17:46 | 43.16365 | 38.10923 | 36154 ft | 448 kts | 35° |
| 2026-05-06 17:47 | 43.21527 | 38.15719 | 36151 ft | 448 kts | 35° |
| 2026-05-06 17:47 | 43.26674 | 38.20520 | 36152 ft | 448 kts | 35° |
| 2026-05-06 17:48 | 43.31727 | 38.25234 | 36152 ft | 448 kts | 35° |
| 2026-05-06 17:48 | 43.36879 | 38.30061 | 36154 ft | 448 kts | 35° |
| 2026-05-06 17:49 | 43.42015 | 38.34907 | 36153 ft | 448 kts | 36° |
| 2026-05-06 17:49 | 43.47132 | 38.39794 | 36153 ft | 448 kts | 36° |
| 2026-05-06 17:50 | 43.52242 | 38.44694 | 36154 ft | 447 kts | 36° |
| 2026-05-06 17:50 | 43.57313 | 38.49560 | 36156 ft | 447 kts | 36° |
| 2026-05-06 17:51 | 43.62431 | 38.54422 | 36155 ft | 447 kts | 35° |
| 2026-05-06 17:51 | 43.67598 | 38.59198 | 36149 ft | 446 kts | 34° |
| 2026-05-06 17:52 | 43.72759 | 38.63946 | 36158 ft | 446 kts | 35° |
| 2026-05-06 17:52 | 43.77904 | 38.68718 | 36157 ft | 445 kts | 35° |
| 2026-05-06 17:53 | 43.83028 | 38.73514 | 36154 ft | 444 kts | 35° |
| 2026-05-06 17:53 | 43.88112 | 38.78290 | 36153 ft | 444 kts | 35° |
| 2026-05-06 17:54 | 43.93227 | 38.83093 | 36152 ft | 444 kts | 35° |
| 2026-05-06 17:54 | 43.98346 | 38.87908 | 36148 ft | 444 kts | 35° |
| 2026-05-06 17:55 | 44.03458 | 38.92724 | 36146 ft | 444 kts | 35° |
| 2026-05-06 17:55 | 44.08562 | 38.97561 | 36145 ft | 444 kts | 35° |
| 2026-05-06 17:56 | 44.13662 | 39.02412 | 36144 ft | 444 kts | 38° |
| 2026-05-06 17:56 | 44.18390 | 39.07829 | 36133 ft | 443 kts | 41° |
| 2026-05-06 17:57 | 44.23114 | 39.13343 | 36127 ft | 443 kts | 41° |
| 2026-05-06 17:57 | 44.27847 | 39.18871 | 36127 ft | 443 kts | 41° |
| 2026-05-06 17:58 | 44.32574 | 39.24395 | 36122 ft | 443 kts | 41° |
| 2026-05-06 17:58 | 44.37301 | 39.29935 | 36117 ft | 443 kts | 41° |
| 2026-05-06 17:59 | 44.41985 | 39.35452 | 36110 ft | 443 kts | 41° |
| 2026-05-06 17:59 | 44.46700 | 39.41009 | 36112 ft | 443 kts | 41° |
| 2026-05-06 18:00 | 44.51415 | 39.46570 | 36101 ft | 443 kts | 41° |
| 2026-05-06 18:00 | 44.56145 | 39.52107 | 36100 ft | 443 kts | 40° |
| 2026-05-06 18:01 | 44.60908 | 39.57577 | 36101 ft | 443 kts | 40° |
| 2026-05-06 18:01 | 44.65671 | 39.63055 | 36096 ft | 442 kts | 40° |
| 2026-05-06 18:02 | 44.70418 | 39.68550 | 36093 ft | 442 kts | 40° |
| 2026-05-06 18:02 | 44.75164 | 39.74061 | 36087 ft | 442 kts | 40° |
| 2026-05-06 18:03 | 44.79873 | 39.79537 | 36084 ft | 442 kts | 40° |
| 2026-05-06 18:03 | 44.84609 | 39.85069 | 36076 ft | 442 kts | 40° |
| 2026-05-06 18:04 | 44.89339 | 39.90608 | 36072 ft | 442 kts | 40° |
| 2026-05-06 18:04 | 44.94075 | 39.96157 | 36073 ft | 442 kts | 40° |
| 2026-05-06 18:05 | 44.98798 | 40.01727 | 36073 ft | 442 kts | 40° |
| 2026-05-06 18:05 | 45.03521 | 40.07299 | 36073 ft | 442 kts | 40° |
| 2026-05-06 18:06 | 45.08248 | 40.12874 | 36071 ft | 442 kts | 40° |
| 2026-05-06 18:06 | 45.12944 | 40.18410 | 36072 ft | 442 kts | 40° |
| 2026-05-06 18:07 | 45.17657 | 40.23999 | 36072 ft | 442 kts | 40° |
| 2026-05-06 18:07 | 45.22369 | 40.29604 | 36072 ft | 442 kts | 40° |
| 2026-05-06 18:08 | 45.27074 | 40.35224 | 36071 ft | 442 kts | 41° |
| 2026-05-06 18:08 | 45.31775 | 40.40841 | 36065 ft | 442 kts | 40° |
| 2026-05-06 18:09 | 45.36500 | 40.46435 | 36066 ft | 442 kts | 40° |
| 2026-05-06 18:09 | 45.41224 | 40.52022 | 36067 ft | 442 kts | 40° |
| 2026-05-06 18:10 | 45.45922 | 40.57573 | 36069 ft | 442 kts | 39° |
| 2026-05-06 18:10 | 45.50827 | 40.62862 | 36064 ft | 442 kts | 37° |
| 2026-05-06 18:11 | 45.54986 | 40.67091 | 36067 ft | 441 kts | 36° |
| 2026-05-06 18:11 | 45.60808 | 40.73082 | 36069 ft | 441 kts | 37° |
| 2026-05-06 18:12 | 45.65740 | 40.78289 | 36065 ft | 441 kts | 37° |
| 2026-05-06 18:12 | 45.70658 | 40.83514 | 36064 ft | 441 kts | 37° |
| 2026-05-06 18:13 | 45.75546 | 40.88705 | 36063 ft | 440 kts | 37° |
| 2026-05-06 18:13 | 45.80470 | 40.93931 | 36062 ft | 440 kts | 37° |
| 2026-05-06 18:14 | 45.85392 | 40.99172 | 36054 ft | 440 kts | 37° |
| 2026-05-06 18:14 | 45.90306 | 41.04412 | 36054 ft | 440 kts | 37° |
| 2026-05-06 18:15 | 45.95219 | 41.09667 | 36051 ft | 440 kts | 37° |
| 2026-05-06 18:15 | 46.00095 | 41.14892 | 36051 ft | 440 kts | 37° |
| 2026-05-06 18:16 | 46.05003 | 41.20167 | 36044 ft | 440 kts | 38° |
| 2026-05-06 18:16 | 46.09908 | 41.25446 | 36044 ft | 440 kts | 37° |
| 2026-05-06 18:17 | 46.14817 | 41.30738 | 36041 ft | 440 kts | 38° |
| 2026-05-06 18:17 | 46.19716 | 41.36042 | 36028 ft | 440 kts | 38° |
| 2026-05-06 18:18 | 46.24617 | 41.41360 | 36031 ft | 440 kts | 38° |
| 2026-05-06 18:18 | 46.29507 | 41.46671 | 36041 ft | 439 kts | 38° |
| 2026-05-06 18:19 | 46.34389 | 41.51980 | 36039 ft | 439 kts | 38° |
| 2026-05-06 18:19 | 46.39228 | 41.57262 | 36037 ft | 438 kts | 38° |
| 2026-05-06 18:20 | 46.44090 | 41.62581 | 36032 ft | 438 kts | 38° |
| 2026-05-06 18:20 | 46.48949 | 41.67906 | 36023 ft | 438 kts | 38° |
| 2026-05-06 18:21 | 46.53805 | 41.73238 | 36024 ft | 437 kts | 38° |
| 2026-05-06 18:21 | 46.58654 | 41.78574 | 36018 ft | 437 kts | 39° |
| 2026-05-06 18:22 | 46.63495 | 41.83926 | 36013 ft | 437 kts | 39° |
| 2026-05-06 18:22 | 46.68328 | 41.89282 | 36014 ft | 437 kts | 39° |
| 2026-05-06 18:23 | 46.73124 | 41.94615 | 36008 ft | 436 kts | 39° |
| 2026-05-06 18:23 | 46.77952 | 41.99983 | 36003 ft | 436 kts | 39° |
| 2026-05-06 18:24 | 46.82785 | 42.05341 | 36002 ft | 436 kts | 39° |
| 2026-05-06 18:24 | 46.87619 | 42.10694 | 35994 ft | 436 kts | 39° |
| 2026-05-06 18:25 | 46.92450 | 42.16063 | 35989 ft | 436 kts | 39° |
| 2026-05-06 18:25 | 46.97277 | 42.21436 | 35989 ft | 436 kts | 39° |
| 2026-05-06 18:26 | 47.01281 | 42.25918 | 35984 ft | 436 kts | 39° |
| 2026-05-06 18:26 | 47.06100 | 42.31316 | 35981 ft | 436 kts | 39° |
| 2026-05-06 18:27 | 47.11696 | 42.37593 | 35971 ft | 436 kts | 39° |
| 2026-05-06 18:27 | 47.16503 | 42.43005 | 35970 ft | 436 kts | 39° |
| 2026-05-06 18:28 | 47.20526 | 42.47562 | 35971 ft | 436 kts | 39° |
| 2026-05-06 18:28 | 47.25293 | 42.52971 | 35967 ft | 436 kts | 39° |
| 2026-05-06 18:29 | 47.30091 | 42.58419 | 35954 ft | 436 kts | 39° |
| 2026-05-06 18:29 | 47.34891 | 42.63885 | 35959 ft | 436 kts | 39° |
| 2026-05-06 18:30 | 47.39687 | 42.69364 | 35953 ft | 436 kts | 39° |
| 2026-05-06 18:30 | 47.44487 | 42.74854 | 35953 ft | 436 kts | 39° |
| 2026-05-06 18:31 | 47.49282 | 42.80344 | 35952 ft | 436 kts | 39° |
| 2026-05-06 18:31 | 47.54082 | 42.85853 | 35950 ft | 436 kts | 39° |
| 2026-05-06 18:32 | 47.58839 | 42.91338 | 35946 ft | 436 kts | 39° |
| 2026-05-06 18:32 | 47.63621 | 42.96880 | 35944 ft | 436 kts | 39° |
| 2026-05-06 18:33 | 47.68405 | 43.02418 | 35943 ft | 436 kts | 39° |
| 2026-05-06 18:33 | 47.73194 | 43.07963 | 35945 ft | 436 kts | 39° |
| 2026-05-06 18:34 | 47.77966 | 43.13516 | 35944 ft | 436 kts | 39° |
| 2026-05-06 18:34 | 47.82736 | 43.19085 | 35940 ft | 436 kts | 39° |
| 2026-05-06 18:35 | 47.87468 | 43.24624 | 35944 ft | 435 kts | 39° |
| 2026-05-06 18:35 | 47.92226 | 43.30212 | 35943 ft | 435 kts | 40° |
| 2026-05-06 18:36 | 47.96967 | 43.35818 | 35938 ft | 435 kts | 40° |
| 2026-05-06 18:36 | 48.01715 | 43.41431 | 35947 ft | 435 kts | 40° |
| 2026-05-06 18:37 | 48.06457 | 43.47043 | 35940 ft | 435 kts | 39° |
| 2026-05-06 18:37 | 48.11203 | 43.52662 | 35935 ft | 435 kts | 39° |
| 2026-05-06 18:38 | 48.15937 | 43.58295 | 35934 ft | 435 kts | 40° |
| 2026-05-06 18:38 | 48.20666 | 43.63944 | 35945 ft | 435 kts | 40° |
| 2026-05-06 18:39 | 48.25379 | 43.69622 | 35942 ft | 434 kts | 40° |
| 2026-05-06 18:40 | 48.32389 | 43.78142 | 35946 ft | 434 kts | 40° |
| 2026-05-06 18:40 | 48.37079 | 43.83854 | 35944 ft | 434 kts | 40° |
| 2026-05-06 18:41 | 48.41769 | 43.89570 | 35932 ft | 434 kts | 40° |
| 2026-05-06 18:41 | 48.46455 | 43.95309 | 35930 ft | 434 kts | 40° |
| 2026-05-06 18:42 | 48.51135 | 44.01057 | 35937 ft | 434 kts | 40° |
| 2026-05-06 18:42 | 48.55792 | 44.06777 | 35940 ft | 434 kts | 40° |
| 2026-05-06 18:43 | 48.60481 | 44.12537 | 35935 ft | 435 kts | 40° |
| 2026-05-06 18:43 | 48.65165 | 44.18322 | 35938 ft | 435 kts | 40° |
| 2026-05-06 18:44 | 48.69846 | 44.24111 | 35940 ft | 435 kts | 40° |
| 2026-05-06 18:44 | 48.74528 | 44.29920 | 35942 ft | 435 kts | 40° |
| 2026-05-06 18:45 | 48.79347 | 44.35461 | 35937 ft | 436 kts | 31° |
| 2026-05-06 18:45 | 48.84567 | 44.40038 | 35937 ft | 436 kts | 31° |
| 2026-05-06 18:46 | 48.89825 | 44.44658 | 35938 ft | 437 kts | 31° |
| 2026-05-06 18:46 | 48.95081 | 44.49302 | 35935 ft | 437 kts | 31° |
| 2026-05-06 18:47 | 49.00338 | 44.53947 | 35930 ft | 437 kts | 31° |
| 2026-05-06 18:47 | 49.05601 | 44.58603 | 35929 ft | 437 kts | 31° |
| 2026-05-06 18:48 | 49.10860 | 44.63282 | 35924 ft | 438 kts | 31° |
| 2026-05-06 18:48 | 49.16122 | 44.67972 | 35895 ft | 439 kts | 31° |
| 2026-05-06 18:48 | 49.18718 | 44.70289 | 35719 ft | 437 kts | 31° |
| 2026-05-06 18:49 | 49.21343 | 44.72632 | 35539 ft | 437 kts | 31° |
| 2026-05-06 18:49 | 49.23972 | 44.74979 | 35369 ft | 437 kts | 31° |
| 2026-05-06 18:49 | 49.26594 | 44.77322 | 35194 ft | 436 kts | 31° |
| 2026-05-06 18:49 | 49.29212 | 44.79670 | 35009 ft | 436 kts | 31° |
| 2026-05-06 18:50 | 49.31828 | 44.82024 | 34899 ft | 435 kts | 31° |
| 2026-05-06 18:50 | 49.37057 | 44.86733 | 34931 ft | 436 kts | 31° |
| 2026-05-06 18:51 | 49.42285 | 44.91454 | 34931 ft | 436 kts | 31° |
| 2026-05-06 18:51 | 49.47516 | 44.96179 | 34926 ft | 436 kts | 31° |
| 2026-05-06 18:52 | 49.52743 | 45.00909 | 34926 ft | 436 kts | 31° |
| 2026-05-06 18:52 | 49.57966 | 45.05668 | 34924 ft | 436 kts | 31° |
| 2026-05-06 18:53 | 49.63186 | 45.10426 | 34927 ft | 436 kts | 31° |
| 2026-05-06 18:53 | 49.68556 | 45.14564 | 34924 ft | 436 kts | 19° |
| 2026-05-06 18:54 | 49.74390 | 45.17149 | 34917 ft | 436 kts | 17° |
| 2026-05-06 18:54 | 49.80240 | 45.19702 | 34910 ft | 437 kts | 17° |
| 2026-05-06 18:55 | 49.86101 | 45.22269 | 34902 ft | 438 kts | 17° |
| 2026-05-06 18:55 | 49.91979 | 45.24850 | 34897 ft | 440 kts | 17° |
| 2026-05-06 18:56 | 49.97874 | 45.27459 | 34899 ft | 441 kts | 17° |
| 2026-05-06 18:56 | 50.03750 | 45.30000 | 34904 ft | 442 kts | 14° |
| 2026-05-06 18:57 | 50.09753 | 45.32103 | 34906 ft | 442 kts | 12° |
| 2026-05-06 18:57 | 50.15788 | 45.34013 | 34910 ft | 443 kts | 12° |
| 2026-05-06 18:58 | 50.21820 | 45.35976 | 34912 ft | 443 kts | 13° |
| 2026-05-06 18:58 | 50.27833 | 45.38031 | 34914 ft | 443 kts | 13° |
| 2026-05-06 18:59 | 50.33844 | 45.40129 | 34915 ft | 442 kts | 13° |
| 2026-05-06 18:59 | 50.39811 | 45.42187 | 34915 ft | 442 kts | 13° |
| 2026-05-06 19:00 | 50.45833 | 45.44252 | 34913 ft | 443 kts | 13° |
| 2026-05-06 19:00 | 50.51847 | 45.46312 | 34913 ft | 443 kts | 12° |
| 2026-05-06 19:01 | 50.57865 | 45.48391 | 34911 ft | 443 kts | 12° |
| 2026-05-06 19:01 | 50.63884 | 45.50490 | 34905 ft | 443 kts | 13° |
| 2026-05-06 19:02 | 50.69907 | 45.52592 | 34903 ft | 444 kts | 12° |
| 2026-05-06 19:02 | 50.75931 | 45.54693 | 34908 ft | 443 kts | 12° |
| 2026-05-06 19:03 | 50.81907 | 45.56794 | 34910 ft | 442 kts | 13° |
| 2026-05-06 19:03 | 50.87911 | 45.58938 | 34911 ft | 442 kts | 13° |
| 2026-05-06 19:04 | 50.93913 | 45.61112 | 34898 ft | 442 kts | 13° |
| 2026-05-06 19:04 | 50.99908 | 45.63288 | 34903 ft | 442 kts | 13° |
| 2026-05-06 19:05 | 51.05724 | 45.66354 | 34906 ft | 441 kts | 25° |
| 2026-05-06 19:05 | 51.11270 | 45.70502 | 34906 ft | 441 kts | 25° |
| 2026-05-06 19:06 | 51.16776 | 45.74634 | 34905 ft | 440 kts | 25° |
| 2026-05-06 19:06 | 51.22320 | 45.78807 | 34908 ft | 441 kts | 25° |
| 2026-05-06 19:07 | 51.27861 | 45.82981 | 34900 ft | 441 kts | 25° |
| 2026-05-06 19:07 | 51.33403 | 45.87175 | 34900 ft | 441 kts | 25° |
| 2026-05-06 19:08 | 51.38939 | 45.91374 | 34898 ft | 440 kts | 25° |
| 2026-05-06 19:08 | 51.44475 | 45.95577 | 34890 ft | 440 kts | 25° |
| 2026-05-06 19:09 | 51.50008 | 45.99790 | 34889 ft | 440 kts | 25° |
| 2026-05-06 19:09 | 51.55463 | 46.04107 | 34886 ft | 440 kts | 31° |
| 2026-05-06 19:10 | 51.60284 | 46.10156 | 34888 ft | 440 kts | 40° |
| 2026-05-06 19:10 | 51.64918 | 46.16598 | 34890 ft | 441 kts | 40° |
| 2026-05-06 19:11 | 51.69568 | 46.23047 | 34893 ft | 441 kts | 40° |
| 2026-05-06 19:11 | 51.74202 | 46.29520 | 34893 ft | 441 kts | 40° |
| 2026-05-06 19:12 | 51.78833 | 46.36013 | 34888 ft | 441 kts | 40° |
| 2026-05-06 19:12 | 51.83097 | 46.43091 | 34884 ft | 441 kts | 52° |
| 2026-05-06 19:13 | 51.86831 | 46.50880 | 34882 ft | 441 kts | 51° |
| 2026-05-06 19:13 | 51.90596 | 46.58712 | 34879 ft | 441 kts | 51° |
| 2026-05-06 19:14 | 51.94361 | 46.66560 | 34876 ft | 441 kts | 51° |
| 2026-05-06 19:14 | 51.98122 | 46.74415 | 34878 ft | 441 kts | 51° |
| 2026-05-06 19:15 | 52.01883 | 46.82304 | 34883 ft | 442 kts | 52° |
| 2026-05-06 19:15 | 52.05630 | 46.90199 | 34887 ft | 442 kts | 52° |
| 2026-05-06 19:16 | 52.09350 | 46.98066 | 34891 ft | 442 kts | 52° |
| 2026-05-06 19:16 | 52.13088 | 47.06005 | 34888 ft | 442 kts | 52° |
| 2026-05-06 19:17 | 52.16816 | 47.13959 | 34890 ft | 442 kts | 52° |
| 2026-05-06 19:17 | 52.20546 | 47.21913 | 34888 ft | 442 kts | 52° |
| 2026-05-06 19:18 | 52.24266 | 47.29884 | 34883 ft | 442 kts | 52° |
| 2026-05-06 19:18 | 52.27974 | 47.37871 | 34882 ft | 441 kts | 52° |
| 2026-05-06 19:19 | 52.31674 | 47.45876 | 34880 ft | 441 kts | 52° |
| 2026-05-06 19:19 | 52.35354 | 47.53834 | 34880 ft | 442 kts | 52° |
| 2026-05-06 19:20 | 52.39058 | 47.61860 | 34883 ft | 442 kts | 52° |
| 2026-05-06 19:20 | 52.42756 | 47.69897 | 34884 ft | 442 kts | 52° |
| 2026-05-06 19:21 | 52.46452 | 47.77955 | 34884 ft | 442 kts | 53° |
| 2026-05-06 19:21 | 52.50134 | 47.86031 | 34883 ft | 442 kts | 53° |
| 2026-05-06 19:22 | 52.53811 | 47.94117 | 34884 ft | 442 kts | 53° |
| 2026-05-06 19:22 | 52.57464 | 48.02168 | 34702 ft | 443 kts | 53° |
| 2026-05-06 19:22 | 52.59300 | 48.06238 | 34438 ft | 442 kts | 53° |
| 2026-05-06 19:23 | 52.61141 | 48.10324 | 33514 ft | 448 kts | 53° |
| 2026-05-06 19:23 | 52.63003 | 48.14452 | 32544 ft | 451 kts | 52° |
| 2026-05-06 19:23 | 52.64878 | 48.18613 | 31515 ft | 455 kts | 52° |
| 2026-05-06 19:23 | 52.66769 | 48.22815 | 30796 ft | 453 kts | 52° |
| 2026-05-06 19:24 | 52.68630 | 48.26958 | 30201 ft | 448 kts | 52° |
| 2026-05-06 19:24 | 52.70474 | 48.31070 | 29513 ft | 444 kts | 52° |
| 2026-05-06 19:24 | 52.72301 | 48.35144 | 28866 ft | 438 kts | 52° |
| 2026-05-06 19:24 | 52.74100 | 48.39156 | 28252 ft | 433 kts | 52° |
| 2026-05-06 19:25 | 52.75877 | 48.43124 | 27642 ft | 428 kts | 52° |
| 2026-05-06 19:25 | 52.77611 | 48.47003 | 27051 ft | 423 kts | 52° |
| 2026-05-06 19:25 | 52.79344 | 48.50896 | 26458 ft | 419 kts | 52° |
| 2026-05-06 19:25 | 52.81061 | 48.54762 | 25875 ft | 415 kts | 52° |
| 2026-05-06 19:26 | 52.82757 | 48.58588 | 25298 ft | 411 kts | 52° |
| 2026-05-06 19:26 | 52.84435 | 48.62376 | 24751 ft | 407 kts | 52° |
| 2026-05-06 19:26 | 52.86098 | 48.66133 | 24192 ft | 403 kts | 53° |
| 2026-05-06 19:26 | 52.87745 | 48.69862 | 23666 ft | 399 kts | 53° |
| 2026-05-06 19:27 | 52.89370 | 48.73556 | 23101 ft | 395 kts | 53° |
| 2026-05-06 19:27 | 52.90968 | 48.77208 | 22606 ft | 389 kts | 53° |
| 2026-05-06 19:27 | 52.92544 | 48.80817 | 22126 ft | 383 kts | 53° |
| 2026-05-06 19:27 | 52.94097 | 48.84361 | 21666 ft | 378 kts | 53° |
| 2026-05-06 19:28 | 52.95635 | 48.87866 | 21204 ft | 373 kts | 53° |
| 2026-05-06 19:28 | 52.97153 | 48.91330 | 20746 ft | 369 kts | 53° |
| 2026-05-06 19:28 | 52.98633 | 48.94719 | 20289 ft | 366 kts | 53° |
| 2026-05-06 19:28 | 53.00117 | 48.98126 | 19826 ft | 363 kts | 53° |
| 2026-05-06 19:29 | 53.01592 | 49.01512 | 19364 ft | 360 kts | 53° |
| 2026-05-06 19:29 | 53.03056 | 49.04877 | 18888 ft | 359 kts | 53° |
| 2026-05-06 19:29 | 53.04512 | 49.08234 | 18412 ft | 357 kts | 54° |
| 2026-05-06 19:29 | 53.05961 | 49.11583 | 17892 ft | 356 kts | 54° |
| 2026-05-06 19:30 | 53.07403 | 49.14915 | 17399 ft | 354 kts | 53° |
| 2026-05-06 19:30 | 53.09026 | 49.17958 | 16925 ft | 351 kts | 42° |
| 2026-05-06 19:30 | 53.10937 | 49.20455 | 16458 ft | 348 kts | 36° |
| 2026-05-06 19:30 | 53.12893 | 49.22806 | 15993 ft | 346 kts | 36° |
| 2026-05-06 19:31 | 53.14836 | 49.25151 | 15531 ft | 344 kts | 36° |
| 2026-05-06 19:31 | 53.16738 | 49.27459 | 15078 ft | 342 kts | 36° |
| 2026-05-06 19:31 | 53.20557 | 49.32116 | 14175 ft | 338 kts | 36° |
| 2026-05-06 19:32 | 53.22451 | 49.34424 | 13722 ft | 336 kts | 36° |
| 2026-05-06 19:32 | 53.24335 | 49.36725 | 13230 ft | 334 kts | 36° |
| 2026-05-06 19:32 | 53.26203 | 49.39009 | 12763 ft | 331 kts | 35° |
| 2026-05-06 19:32 | 53.28052 | 49.41272 | 12310 ft | 328 kts | 36° |
| 2026-05-06 19:33 | 53.29886 | 49.43520 | 11855 ft | 326 kts | 36° |
| 2026-05-06 19:33 | 53.31708 | 49.45753 | 11403 ft | 324 kts | 36° |
| 2026-05-06 19:33 | 53.33519 | 49.47978 | 10936 ft | 322 kts | 36° |
| 2026-05-06 19:33 | 53.35316 | 49.50188 | 10475 ft | 320 kts | 36° |
| 2026-05-06 19:34 | 53.37085 | 49.52367 | 10265 ft | 310 kts | 36° |
| 2026-05-06 19:34 | 53.38786 | 49.54465 | 10142 ft | 298 kts | 36° |
| 2026-05-06 19:34 | 53.40425 | 49.56488 | 10017 ft | 287 kts | 36° |
| 2026-05-06 19:34 | 53.41987 | 49.58417 | 9807 ft | 279 kts | 35° |
| 2026-05-06 19:35 | 53.43538 | 49.60330 | 9690 ft | 277 kts | 35° |
| 2026-05-06 19:35 | 53.45085 | 49.62242 | 9321 ft | 276 kts | 36° |
| 2026-05-06 19:35 | 53.46626 | 49.64147 | 8957 ft | 275 kts | 35° |
| 2026-05-06 19:35 | 53.48163 | 49.66048 | 8589 ft | 274 kts | 35° |
| 2026-05-06 19:36 | 53.49694 | 49.67944 | 8230 ft | 273 kts | 36° |
| 2026-05-06 19:36 | 53.51218 | 49.69836 | 7879 ft | 272 kts | 36° |
| 2026-05-06 19:36 | 53.52737 | 49.71725 | 7500 ft | 271 kts | 36° |
| 2026-05-06 19:36 | 53.54252 | 49.73608 | 7140 ft | 270 kts | 36° |
| 2026-05-06 19:37 | 53.55761 | 49.75482 | 6785 ft | 269 kts | 36° |
| 2026-05-06 19:37 | 53.57262 | 49.77351 | 6412 ft | 268 kts | 36° |
| 2026-05-06 19:37 | 53.58761 | 49.79216 | 6044 ft | 267 kts | 36° |
| 2026-05-06 19:37 | 53.59750 | 49.80448 | 5798 ft | 267 kts | 36° |
| 2026-05-06 19:38 | 53.61710 | 49.82894 | 5423 ft | 261 kts | 36° |
| 2026-05-06 19:38 | 53.63137 | 49.84677 | 5292 ft | 249 kts | 36° |
| 2026-05-06 19:38 | 53.64499 | 49.86379 | 5166 ft | 238 kts | 36° |
| 2026-05-06 19:38 | 53.65799 | 49.88005 | 5030 ft | 228 kts | 37° |
| 2026-05-06 19:39 | 53.66560 | 49.89200 | 4872 ft | 225 kts | 49° |
| 2026-05-06 19:39 | 53.67533 | 49.92294 | 4468 ft | 225 kts | 75° |
| 2026-05-06 19:39 | 53.67696 | 49.94885 | 4311 ft | 220 kts | 90° |
| 2026-05-06 19:39 | 53.67684 | 49.97418 | 4193 ft | 212 kts | 89° |
| 2026-05-06 19:40 | 53.67676 | 49.99873 | 4067 ft | 206 kts | 89° |
| 2026-05-06 19:40 | 53.67670 | 50.02243 | 3837 ft | 201 kts | 89° |
| 2026-05-06 19:40 | 53.67624 | 50.03808 | 3538 ft | 204 kts | 98° |
| 2026-05-06 19:40 | 53.67150 | 50.06041 | 3270 ft | 203 kts | 120° |
| 2026-05-06 19:41 | 53.65854 | 50.08281 | 3007 ft | 203 kts | 148° |
| 2026-05-06 19:41 | 53.64558 | 50.09219 | 2780 ft | 203 kts | 161° |
| 2026-05-06 19:41 | 53.63250 | 50.10004 | 2544 ft | 195 kts | 161° |
| 2026-05-06 19:41 | 53.61981 | 50.10767 | 2319 ft | 192 kts | 161° |
| 2026-05-06 19:42 | 53.60771 | 50.11495 | 2108 ft | 177 kts | 161° |
| 2026-05-06 19:42 | 53.60032 | 50.11941 | 1987 ft | 164 kts | 161° |
| 2026-05-06 19:42 | 53.59001 | 50.12561 | 1785 ft | 152 kts | 161° |
| 2026-05-06 19:42 | 53.58021 | 50.13149 | 1613 ft | 148 kts | 162° |
| 2026-05-06 19:43 | 53.57061 | 50.13728 | 1431 ft | 146 kts | 161° |
| 2026-05-06 19:43 | 53.56110 | 50.14298 | 1258 ft | 144 kts | 161° |
| 2026-05-06 19:43 | 53.55169 | 50.14852 | 1081 ft | 143 kts | 161° |
| 2026-05-06 19:43 | 53.54239 | 50.15419 | 916 ft | 142 kts | 160° |
| 2026-05-06 19:44 | 53.53312 | 50.15979 | 757 ft | 141 kts | 160° |
| 2026-05-06 19:44 | 53.52390 | 50.16534 | 588 ft | 140 kts | 161° |
| 2026-05-06 19:44 | 53.51471 | 50.17073 | 456 ft | 136 kts | 161° |
| 2026-05-06 19:44 | 53.50758 | 50.17501 | 432 ft | 68 kts | 160° |
| 2026-05-06 19:45 | 53.50571 | 50.17615 | 438 ft | 14 kts | 160° |
| 2026-05-06 19:45 | 53.50510 | 50.17611 | 438 ft | 7 kts | 224° |
| 2026-05-06 19:45 | 53.50496 | 50.17558 | 435 ft | 3 kts | 251° |
| 2026-05-06 19:45 | 53.50480 | 50.17481 | 446 ft | 14 kts | 251° |
| 2026-05-06 19:46 | 53.50452 | 50.17336 | 447 ft | 11 kts | 256° |
| 2026-05-06 19:46 | 53.50478 | 50.17246 | 447 ft | 8 kts | 331° |
| 2026-05-06 19:46 | 53.50556 | 50.17198 | 447 ft | 16 kts | 340° |
| 2026-05-06 19:46 | 53.50671 | 50.17129 | 447 ft | 19 kts | 341° |
| 2026-05-06 19:47 | 53.50796 | 50.17056 | 447 ft | 18 kts | 341° |
| 2026-05-06 19:47 | 53.50877 | 50.16939 | 446 ft | 16 kts | 301° |
| 2026-05-06 19:47 | 53.50941 | 50.16770 | 447 ft | 18 kts | 302° |
| 2026-05-06 19:47 | 53.51001 | 50.16602 | 447 ft | 17 kts | 301° |
| 2026-05-06 19:48 | 53.51066 | 50.16424 | 447 ft | 19 kts | 302° |
| 2026-05-06 19:48 | 53.51131 | 50.16246 | 447 ft | 15 kts | 300° |
| 2026-05-06 19:48 | 53.51145 | 50.16115 | 447 ft | 11 kts | 245° |
| 2026-05-06 19:48 | 53.51110 | 50.16008 | 447 ft | 13 kts | 241° |
| 2026-05-06 19:49 | 53.51065 | 50.15869 | 447 ft | 5 kts | 241° |
| 2026-05-06 19:49 | 53.51050 | 50.15824 | 447 ft | 4 kts | 242° |
| 2026-05-06 19:49 | 53.51044 | 50.15785 | 447 ft | 4 kts | 271° |
| 2026-05-06 19:49 | 53.51057 | 50.15748 | 447 ft | 4 kts | 311° |
| 2026-05-06 19:50 | 53.51087 | 50.15716 | 447 ft | 3 kts | 331° |
| 2026-05-06 19:50 | 53.51093 | 50.15711 | 447 ft | 0 kts | 330° |
| 2026-05-06 19:54 | 53.51093 | 50.15710 | 447 ft | 0 kts | 330° |